Date,TemperatureHighF,TemperatureAvgF,TemperatureLowF,DewpointHighF,DewpointAvgF,DewpointLowF,HumidityHigh,HumidityAvg,HumidityLow,PressureMaxIn,PressureMinIn,WindSpeedMaxMPH,WindSpeedAvgMPH,GustSpeedMaxMPH,PrecipitationSumIn
2013-7-25,87,72,64,68,60,57,94,64,40,29.94,29.86,6,2,8,0.00
2013-7-26,89,69,56,62,57,54,98,69,37,29.93,29.83,5,1,5,0.00
2013-7-27,87,69,56,68,58,53,98,73,39,29.85,29.55,6,1,6,0.21
2013-7-28,78,67,58,63,59,55,99,78,50,29.79,29.57,10,3,10,0.11
2013-7-29,77,65,58,62,60,54,99,83,53,29.96,29.78,11,3,11,0.31
2013-7-30,78,63,58,69,61,58,99,93,65,29.97,29.84,6,2,6,0.37
2013-7-31,76,67,61,67,62,58,99,86,69,29.98,29.92,8,2,10,0.04
2013-8-1,95,77,62,68,65,61,99,69,35,29.92,29.69,8,2,8,0.00
2013-8-2,85,70,62,66,61,54,95,74,40,29.81,29.73,8,3,8,0.01
2013-8-3,80,66,59,61,58,54,99,76,43,30.11,29.78,8,3,11,0.07
2013-8-4,78,66,59,60,57,53,95,74,49,30.11,30.04,8,2,10,0.00
2013-8-5,75,66,59,64,59,56,99,82,58,30.04,29.75,7,2,8,0.45
2013-8-6,79,63,51,58,53,49,99,74,38,30.06,29.89,8,1,8,0.01
2013-8-7,81,65,56,58,53,48,99,68,33,30.06,29.93,8,2,8,0.00
2013-8-8,85,65,51,56,52,49,96,66,34,30.16,30.06,7,1,7,0.00
2013-8-9,79,66,60,64,56,49,99,72,37,30.19,30.04,8,3,11,0.02
2013-8-10,77,63,55,54,50,47,84,66,38,30.23,30.17,6,2,7,0.00
2013-8-12,71,65,56,53,48,45,76,56,42,30.13,30.03,10,3,11,0.00
2013-8-13,69,59,51,60,52,47,99,78,46,30.23,30.12,8,2,9,0.00
2013-8-14,75,62,50,61,56,50,99,83,50,30.23,30.15,6,1,7,0.01
2013-8-15,74,66,62,69,63,60,98,90,69,30.15,29.98,8,2,8,0.13
2013-8-16,80,66,62,67,63,60,99,90,63,29.99,29.90,7,2,7,0.09
2013-8-17,69,62,56,62,58,56,99,89,67,29.96,29.70,12,3,12,0.05
2013-8-18,79,66,59,62,58,52,99,77,44,29.89,29.69,8,2,8,0.04
2013-8-19,79,63,53,54,51,48,93,66,35,30.32,29.89,8,2,8,0.00
2013-8-20,84,66,54,55,52,49,88,64,33,30.39,30.31,7,1,7,0.00
2013-8-21,84,66,52,60,55,52,99,71,37,30.32,30.15,4,1,7,0.01
2013-8-22,78,66,61,68,63,59,99,91,71,30.16,30.05,2,1,4,0.12
2013-8-23,81,70,61,64,61,57,98,78,44,30.06,29.85,4,1,4,0.00
2013-8-24,67,62,56,65,61,56,99,95,85,29.86,29.80,9,2,11,0.56
2013-8-25,82,64,54,66,59,53,99,84,47,30.03,29.81,11,4,12,0.27
2013-8-26,86,67,58,63,58,50,99,76,36,30.08,30.02,11,3,11,0.00
2013-8-27,83,63,53,61,54,48,99,75,33,30.13,30.04,5,2,8,0.00
2013-8-28,82,64,54,57,54,47,99,73,37,30.22,30.12,8,1,8,0.00
2013-8-29,82,66,57,60,57,54,98,75,44,30.18,30.04,8,1,8,0.00
2013-8-30,78,66,55,62,59,55,99,80,51,30.14,30.02,8,2,9,0.00
2013-8-31,73,62,54,61,48,41,97,65,33,30.44,30.10,17,4,17,0.00
2013-9-1,74,60,50,54,49,44,85,69,41,30.46,30.35,8,2,8,0.00
2013-9-2,85,65,51,62,56,50,99,76,45,30.37,30.09,7,2,8,0.00
2013-9-3,87,67,56,63,60,52,99,79,43,30.44,30.16,10,1,11,0.00
2013-9-4,89,69,56,64,60,56,99,78,36,30.33,29.98,3,1,4,0.00
2013-9-5,89,70,58,65,60,54,99,74,39,29.98,29.77,10,1,11,0.00
2013-9-6,71,60,54,60,55,50,98,85,54,30.33,29.72,8,2,10,0.09
2013-9-7,71,58,49,53,50,47,94,77,46,30.04,29.79,6,2,8,0.00
2013-9-8,63,53,46,55,49,45,99,88,62,30.06,30.03,4,1,5,0.18
2013-9-9,61,52,46,58,51,45,99,97,85,30.04,29.96,5,1,7,0.26
2013-9-10,62,54,48,53,50,47,99,86,62,30.14,30.03,11,3,12,0.02
2013-9-11,62,56,53,55,51,48,97,84,66,30.15,30.08,14,4,14,0.09
2013-9-12,73,59,54,60,56,53,99,90,62,30.09,30.02,4,1,4,0.06
2013-9-13,64,61,54,63,60,53,99,98,94,30.02,29.84,9,1,9,0.53
2013-9-14,57,52,47,53,50,47,99,94,81,30.03,29.84,12,3,15,0.13
2013-9-15,59,52,43,58,50,43,99,93,64,30.02,29.52,8,2,10,0.11
2013-9-16,62,51,45,50,43,40,94,76,46,29.61,29.54,12,3,12,0.01
2013-9-17,55,51,44,54,48,42,97,90,72,29.62,29.32,7,2,7,0.18
2013-9-18,65,54,49,53,49,45,99,84,58,29.84,29.38,11,2,11,0.01
2013-9-19,62,53,45,61,51,43,99,93,78,29.87,29.68,8,1,11,0.05
2013-9-20,75,57,49,55,51,48,99,84,46,30.13,29.82,8,1,8,0.00
2013-9-21,65,58,49,62,56,48,99,93,84,30.24,30.12,5,1,5,0.00
2013-9-22,69,62,56,63,60,56,99,94,82,30.29,29.77,4,1,6,0.00
2013-9-23,72,60,55,63,58,54,99,93,71,30.27,30.04,14,0,14,0.00
2013-9-24,78,60,51,64,56,50,99,90,58,30.05,29.85,4,0,4,0.00
2013-9-25,74,63,56,62,59,56,99,89,63,30.28,29.75,3,0,4,0.00
2013-9-26,70,60,53,59,53,50,96,81,51,29.99,29.83,4,1,6,0.00
2013-9-27,70,56,50,57,51,48,98,83,52,29.99,29.87,4,1,4,0.00
2013-9-28,68,59,53,58,53,48,99,83,59,29.87,29.67,5,2,5,0.08
2013-9-29,70,60,55,56,53,52,92,81,57,29.69,29.65,4,2,6,0.00
2013-9-30,70,60,54,57,53,50,95,80,55,29.97,29.63,4,2,5,0.00
2013-10-1,64,58,52,56,53,49,97,85,66,29.77,29.70,5,2,6,0.00
2013-10-2,69,61,55,63,57,52,99,89,77,29.83,29.73,3,1,3,0.04
2013-10-3,65,60,56,63,59,56,99,96,88,29.81,29.64,3,1,4,0.04
2013-10-4,71,64,59,63,60,57,98,89,69,29.85,29.59,7,2,10,0.01
2013-10-5,66,59,53,59,56,52,99,89,69,30.16,29.86,4,1,4,0.00
2013-10-6,70,55,46,54,50,45,99,85,52,30.22,30.16,4,1,5,0.00
2013-10-7,68,57,50,59,54,50,99,90,68,30.23,29.70,6,1,6,0.00
2013-10-8,66,60,56,60,58,55,99,91,76,30.19,30.13,6,1,8,0.00
2013-10-9,64,55,46,56,49,39,97,81,64,30.20,29.91,11,2,12,0.00
2013-10-10,53,48,44,43,39,37,81,73,59,30.19,29.93,18,8,18,0.00
2013-10-11,55,52,46,53,48,40,96,89,77,30.08,29.93,19,7,19,0.17
2013-10-12,58,53,49,53,48,45,98,86,64,30.06,29.93,9,2,13,0.06
2013-10-13,52,50,46,52,49,45,99,97,93,29.95,29.71,10,2,12,0.28
2013-10-14,51,48,47,50,48,47,99,97,90,29.72,29.66,5,2,8,0.26
2013-10-15,56,50,46,49,48,46,99,93,76,29.91,29.70,7,2,8,0.01
2013-10-16,58,50,42,57,48,42,99,95,84,29.93,29.65,8,1,8,0.13
2013-10-17,67,56,50,56,52,49,96,87,65,29.96,29.75,8,2,11,0.00
2013-10-18,64,56,50,58,54,48,99,91,77,29.97,29.73,3,1,4,0.00
2013-10-19,63,58,54,61,56,52,98,94,87,29.73,29.58,4,1,4,0.11
2013-10-20,63,56,53,57,54,50,98,94,79,29.68,29.58,7,2,10,0.43
2013-10-21,63,59,54,59,56,53,98,92,83,29.69,29.54,7,2,9,0.04
2013-10-22,64,61,55,60,58,54,96,89,84,29.55,29.27,6,3,10,0.31
2013-10-23,64,56,45,57,51,43,97,84,58,29.80,29.19,11,3,14,0.07
2013-10-24,63,52,42,55,48,41,99,89,69,29.93,29.77,3,1,4,0.00
2013-10-25,65,59,55,61,56,53,98,88,75,29.76,29.54,11,3,11,0.05
2013-10-26,62,59,57,57,54,52,94,86,76,29.64,29.41,12,4,14,0.04
2013-10-27,61,56,50,56,50,48,96,83,63,29.41,29.15,18,4,18,0.28
2013-10-28,60,53,47,59,49,42,98,87,71,29.52,28.80,24,4,24,0.44
2013-10-29,54,46,39,46,41,37,95,83,59,30.01,29.52,13,2,13,0.00
2013-10-30,56,48,36,50,43,34,98,86,68,30.12,30.01,7,2,7,0.01
2013-10-31,55,54,52,53,51,49,96,90,83,30.01,29.87,8,2,8,0.06
2013-11-1,56,54,52,53,51,50,95,91,85,29.87,29.49,4,1,7,0.14
2013-11-2,59,52,49,53,47,40,97,83,64,29.51,29.31,16,3,16,0.02
2013-11-3,53,48,44,44,40,38,97,77,62,29.52,29.00,11,4,16,0.25
2013-11-4,50,44,38,45,40,36,98,86,67,29.45,28.97,12,4,19,0.13
2013-11-5,52,46,37,51,42,34,98,87,69,29.46,29.20,11,2,14,0.17
2013-11-6,59,53,48,56,50,42,97,91,80,29.50,29.39,11,2,12,0.12
2013-11-7,58,49,42,56,45,40,95,87,71,29.72,29.45,7,1,8,0.01
2013-11-8,51,43,37,50,42,37,98,96,93,29.72,29.52,4,0,6,0.67
2013-11-9,51,42,34,49,41,33,99,97,93,29.73,29.47,2,1,3,15.50
2013-11-10,45,45,34,45,44,32,97,97,91,29.59,29.59,1,1,1,0.02
2013-11-11,57,50,34,56,48,32,97,95,91,30.24,29.41,6,1,8,0.08
2013-11-12,55,51,44,54,48,40,97,90,73,30.41,29.68,9,2,12,0.05
2013-11-14,49,44,39,39,37,34,84,76,66,30.40,30.17,14,4,15,0.02
2013-11-15,49,41,36,38,34,31,87,77,66,30.50,30.40,10,2,11,0.00
2013-11-16,47,40,32,44,38,30,96,90,83,30.49,30.32,4,0,8,0.00
2013-11-17,50,47,45,46,44,42,95,90,87,30.32,29.97,5,1,8,0.06
2013-11-18,48,46,43,47,45,40,97,94,89,30.50,29.71,8,1,11,0.08
2013-11-19,43,37,30,40,31,24,91,77,58,30.47,29.76,14,3,14,0.17
2013-11-20,43,36,29,41,33,24,94,88,79,30.02,29.39,13,2,13,0.19
2013-11-21,46,41,37,39,36,34,94,83,65,29.93,29.41,11,4,15,0.64
2013-11-22,45,40,37,39,35,31,93,81,65,30.16,29.92,14,4,14,0.00
2013-11-23,44,41,36,39,37,33,93,86,73,30.29,30.16,10,4,10,0.40
2013-11-24,46,43,39,42,38,34,90,83,73,30.55,29.49,8,3,13,0.00
2013-11-25,44,41,38,39,36,34,93,83,75,30.66,29.96,11,3,11,0.00
2013-11-26,45,40,34,38,34,30,86,77,67,30.68,30.22,8,2,8,0.00
2013-11-27,51,46,42,47,43,37,94,90,84,30.55,30.32,6,1,8,0.01
2013-11-28,50,47,43,45,44,37,92,89,78,30.61,30.48,8,2,8,0.04
2013-11-29,50,47,45,44,42,36,92,83,66,30.48,30.17,11,3,13,0.00
2013-11-30,47,43,37,40,36,31,85,77,73,30.44,30.17,11,4,11,0.00
2013-12-1,49,43,34,42,38,29,89,84,76,30.54,30.41,5,1,9,0.00
2013-12-2,50,45,41,43,41,38,92,84,71,30.54,30.43,4,1,4,0.00
2013-12-3,43,42,41,40,36,33,90,77,72,30.43,30.29,4,1,4,0.00
2013-12-4,47,41,33,43,36,29,89,80,59,30.47,30.27,10,2,10,0.00
2013-12-5,51,41,31,43,33,28,90,76,55,30.46,29.99,14,4,17,0.04
2013-12-6,46,42,36,40,33,27,91,72,63,30.37,30.24,11,3,14,0.00
2013-12-7,48,44,42,43,41,39,93,90,84,30.34,30.24,7,1,8,0.00
2013-12-8,51,45,40,45,42,38,94,89,77,30.28,30.20,8,2,8,0.01
2013-12-9,51,44,38,48,42,37,96,92,79,30.40,30.27,4,1,5,0.00
2013-12-10,48,40,33,46,38,32,97,91,86,30.44,30.38,3,0,4,0.00
2013-12-11,41,36,32,40,34,30,97,94,91,30.42,30.29,2,0,2,0.01
2013-12-12,43,37,34,42,36,32,98,95,93,30.29,30.23,4,0,4,0.00
2013-12-16,55,49,43,52,47,41,95,91,87,30.11,29.92,8,2,8,0.13
2013-12-17,44,42,39,43,40,38,96,94,93,30.24,29.94,11,1,11,0.14
2013-12-18,50,46,41,48,44,40,97,92,85,29.95,29.26,17,4,17,0.20
2013-12-19,48,42,36,46,38,33,95,86,66,29.82,29.28,6,2,11,0.14
2013-12-20,51,42,34,45,38,32,96,85,74,30.12,29.82,10,3,11,0.01
2013-12-21,53,50,47,50,48,41,94,90,77,30.00,29.65,11,5,17,0.27
2013-12-22,49,45,39,43,39,35,88,80,61,29.88,29.66,11,3,11,0.01
2013-12-23,53,47,39,50,44,35,93,88,83,29.87,28.83,24,5,24,0.54
2013-12-24,52,46,41,50,42,37,93,86,75,28.95,28.75,14,4,17,0.43
2013-12-25,44,39,36,39,36,32,96,90,78,29.15,28.89,4,1,6,0.04
2013-12-26,45,39,35,42,37,33,97,95,78,29.47,29.14,11,1,13,0.01
2013-12-27,51,48,44,49,40,36,95,76,61,29.23,28.97,13,5,18,0.07
2013-12-28,46,40,34,37,34,30,93,81,70,29.69,29.23,7,1,7,0.00
2013-12-29,45,37,31,41,34,28,96,87,76,30.05,29.70,4,2,5,0.00
2013-12-30,50,47,41,47,43,39,92,86,76,29.97,29.62,15,4,36,0.14
2013-12-31,51,45,41,47,43,38,95,90,83,29.81,29.50,13,3,13,0.16
2014-1-1,51,47,43,49,44,40,94,90,83,29.54,29.01,14,4,14,0.28
2014-1-2,51,47,42,47,43,40,93,86,73,29.41,29.03,8,3,11,0.07